< < Back
Terminal Aerodrome Forecast


Current Version              Previous Versions:   1  2  3  4  5  6  7  8  9  

Terminal Aerodrome Forecast

773
FTUS44 KMRX 021125
TAFCHA
TAF
KCHA 021125Z 0212/0312 21005KT P6SM BKN150
     FM022100 23006KT P6SM VCTS BKN050CB OVC150
      TEMPO 0222/0224 3SM TSRA BR BKN025CB OVC050
     FM030200 VRB03KT P6SM BKN080=

Latest METAR

034
SAUS80 KWBC 021700 RRA
MTRCHA
METAR KCHA 021653Z VRB06KT 10SM SCT040 SCT300 32/21 A3009 RMK AO2 SLP180
T03170211


USA.gov is the U.S. government's official web portal to all federal, state and local government web resources and services.